Time;durP1;ratioP1;P1;durP2;ratioP2;P2;SDS_P1;SDS_P2;PMS_P1;PMS_P2;Temp;Humidity;BMP_temperature;BMP_pressure;BME280_temperature;BME280_humidity;BME280_pressure;Samples;Min_cycle;Max_cycle;Signal;HPM_P1;HPM_P2
2022/09/20 00:01:06;;;;;;;0.20;0.20;;;;;;;;;;5026215;28;20045;-71
2022/09/20 00:03:35;;;;;;;0.10;0.10;;;;;;;;;;5019082;28;20049;-70
2022/09/20 00:06:05;;;;;;;0.10;0.10;;;;;;;;;;5026343;28;20052;-71
2022/09/20 00:08:33;;;;;;;0.10;0.10;;;;;;;;;;5013743;28;20050;-73
2022/09/20 00:11:05;;;;;;;0.20;0.20;;;;;;;;;;5026097;28;20050;-71
2022/09/20 00:13:34;;;;;;;0.28;0.28;;;;;;;;;;5018234;28;20050;-75
2022/09/20 00:16:05;;;;;;;0.20;0.20;;;;;;;;;;5024945;28;20050;-71
2022/09/20 00:18:33;;;;;;;0.17;0.17;;;;;;;;;;5020429;28;20545;-74
2022/09/20 00:21:01;;;;;;;0.10;0.10;;;;;;;;;;5022473;28;20054;-71
2022/09/20 00:23:30;;;;;;;1.75;0.60;;;;;;;;;;5019136;28;20053;-71
2022/09/20 00:25:59;;;;;;;2.17;0.20;;;;;;;;;;5029037;28;20053;-71
2022/09/20 00:28:32;;;;;;;0.20;0.20;;;;;;;;;;5029253;28;20489;-72
2022/09/20 00:31:00;;;;;;;4.47;0.40;;;;;;;;;;5042036;28;20050;-70
2022/09/20 00:36:12;;;;;;;0.57;0.20;;;;;;;;;;5021484;28;20440;-73
2022/09/20 00:38:40;;;;;;;0.38;0.22;;;;;;;;;;5030494;28;20528;-71
2022/09/20 00:41:08;;;;;;;0.10;0.10;;;;;;;;;;5031058;28;20049;-72
2022/09/20 00:43:39;;;;;;;1.45;0.43;;;;;;;;;;5027582;28;20065;-71
2022/09/20 00:46:13;;;;;;;0.32;0.28;;;;;;;;;;5029491;28;20049;-71
2022/09/20 00:48:42;;;;;;;0.00;0.00;;;;;;;;;;5018575;28;20053;-71
2022/09/20 00:51:12;;;;;;;0.30;0.30;;;;;;;;;;5028004;28;20053;-70
2022/09/20 00:53:42;;;;;;;0.20;0.20;;;;;;;;;;5027599;28;20053;-71
2022/09/20 00:56:14;;;;;;;0.10;0.10;;;;;;;;;;5032082;28;20060;-71
2022/09/20 00:58:45;;;;;;;0.10;0.10;;;;;;;;;;5028960;28;20049;-73
2022/09/20 01:01:14;;;;;;;0.50;0.30;;;;;;;;;;5027994;28;20045;-75
2022/09/20 01:03:45;;;;;;;0.10;0.10;;;;;;;;;;5022158;28;20061;-71
2022/09/20 01:06:15;;;;;;;0.25;0.20;;;;;;;;;;5024858;28;20064;-70
2022/09/20 01:08:46;;;;;;;0.20;0.20;;;;;;;;;;5029919;28;20053;-72
2022/09/20 01:11:14;;;;;;;1.23;0.30;;;;;;;;;;5031259;28;20050;-71
2022/09/20 01:13:43;;;;;;;0.35;0.35;;;;;;;;;;5024967;28;20046;-78
2022/09/20 01:16:13;;;;;;;0.10;0.10;;;;;;;;;;5024777;28;20050;-70
2022/09/20 01:18:42;;;;;;;1.27;0.20;;;;;;;;;;5020888;28;20515;-70
2022/09/20 01:21:11;;;;;;;0.15;0.15;;;;;;;;;;5024899;28;20060;-70
2022/09/20 01:23:46;;;;;;;0.10;0.10;;;;;;;;;;5031395;28;20504;-71
2022/09/20 01:26:30;;;;;;;0.30;0.30;;;;;;;;;;5025758;28;20050;-70
2022/09/20 01:29:03;;;;;;;0.13;0.13;;;;;;;;;;5026922;28;20061;-79
2022/09/20 01:31:34;;;;;;;1.55;0.10;;;;;;;;;;5019866;28;20052;-71
2022/09/20 01:34:03;;;;;;;1.02;0.43;;;;;;;;;;5021349;28;20233;-70
2022/09/20 01:36:34;;;;;;;0.22;0.22;;;;;;;;;;5024918;28;20057;-70
2022/09/20 01:39:07;;;;;;;0.00;0.00;;;;;;;;;;5017780;28;20056;-71
2022/09/20 01:41:37;;;;;;;0.65;0.47;;;;;;;;;;5027093;28;20057;-70
2022/09/20 01:44:11;;;;;;;0.63;0.03;;;;;;;;;;5027768;28;20057;-71
2022/09/20 01:46:42;;;;;;;0.15;0.15;;;;;;;;;;5023389;28;20076;-71
2022/09/20 01:49:16;;;;;;;0.28;0.28;;;;;;;;;;5023718;28;20061;-71
2022/09/20 01:52:04;;;;;;;0.55;0.30;;;;;;;;;;5029313;28;20425;-73
2022/09/20 01:54:45;;;;;;;0.10;0.10;;;;;;;;;;5024123;28;20054;-71
2022/09/20 01:57:28;;;;;;;0.00;0.00;;;;;;;;;;5028576;28;20049;-72
2022/09/20 02:00:09;;;;;;;0.20;0.20;;;;;;;;;;5025913;28;20056;-73
2022/09/20 02:02:48;;;;;;;0.43;0.35;;;;;;;;;;5022140;28;20056;-71
2022/09/20 02:05:33;;;;;;;0.45;0.35;;;;;;;;;;5018268;28;20054;-72
2022/09/20 02:08:08;;;;;;;3.53;0.35;;;;;;;;;;5030334;28;20049;-70
2022/09/20 02:10:56;;;;;;;0.20;0.20;;;;;;;;;;5025904;28;20056;-70
2022/09/20 02:13:30;;;;;;;0.30;0.30;;;;;;;;;;5024552;28;20045;-70
2022/09/20 02:16:20;;;;;;;0.17;0.17;;;;;;;;;;5024781;28;20491;-71
2022/09/20 02:18:57;;;;;;;0.25;0.25;;;;;;;;;;5025813;28;20080;-73
2022/09/20 02:21:30;;;;;;;0.10;0.10;;;;;;;;;;5029976;28;20433;-71
2022/09/20 02:24:06;;;;;;;0.38;0.17;;;;;;;;;;5027011;28;20045;-73
2022/09/20 02:26:39;;;;;;;0.10;0.10;;;;;;;;;;5023422;28;20037;-71
2022/09/20 02:29:15;;;;;;;0.17;0.17;;;;;;;;;;5024009;28;20045;-71
2022/09/20 02:31:56;;;;;;;0.15;0.15;;;;;;;;;;5027407;28;20084;-73
2022/09/20 02:34:31;;;;;;;0.10;0.10;;;;;;;;;;5026773;28;20042;-73
2022/09/20 02:36:59;;;;;;;;;;;;;;;;;;5025154;28;20049;-71
2022/09/20 02:39:36;;;;;;;0.50;0.50;;;;;;;;;;5020990;28;19927;-75
2022/09/20 02:42:07;;;;;;;0.10;0.10;;;;;;;;;;5026920;28;20531;-73
2022/09/20 02:44:42;;;;;;;6.57;0.38;;;;;;;;;;5024650;28;20053;-73
2022/09/20 02:47:15;;;;;;;0.70;0.30;;;;;;;;;;5029191;28;20041;-74
2022/09/20 02:49:52;;;;;;;0.32;0.20;;;;;;;;;;5025137;28;20049;-71
2022/09/20 02:52:28;;;;;;;0.20;0.20;;;;;;;;;;5024667;28;20053;-75
2022/09/20 02:54:59;;;;;;;0.20;0.20;;;;;;;;;;5022596;28;20426;-71
2022/09/20 02:57:34;;;;;;;0.20;0.20;;;;;;;;;;5025679;28;20072;-71
2022/09/20 03:00:04;;;;;;;0.13;0.13;;;;;;;;;;5022897;28;20059;-71
2022/09/20 03:02:42;;;;;;;0.10;0.10;;;;;;;;;;5028716;28;20057;-72
2022/09/20 03:05:16;;;;;;;0.50;0.30;;;;;;;;;;5025461;28;20049;-75
2022/09/20 03:07:53;;;;;;;0.43;0.35;;;;;;;;;;5020869;28;20068;-72
2022/09/20 03:10:25;;;;;;;0.30;0.20;;;;;;;;;;5025462;28;20485;-71
2022/09/20 03:13:01;;;;;;;0.30;0.30;;;;;;;;;;5016852;28;20052;-72
2022/09/20 03:15:32;;;;;;;0.10;0.10;;;;;;;;;;5017926;28;20050;-74
2022/09/20 03:18:07;;;;;;;0.10;0.10;;;;;;;;;;5024798;28;20045;-71
2022/09/20 03:20:41;;;;;;;0.20;0.20;;;;;;;;;;5025779;28;20056;-72
2022/09/20 03:23:14;;;;;;;0.45;0.45;;;;;;;;;;5020952;28;20056;-71
2022/09/20 03:25:50;;;;;;;0.10;0.10;;;;;;;;;;5021402;28;20045;-71
2022/09/20 03:28:33;;;;;;;0.20;0.20;;;;;;;;;;5021309;28;20045;-73
2022/09/20 03:31:05;;;;;;;0.47;0.38;;;;;;;;;;5020811;28;20046;-71
2022/09/20 03:33:40;;;;;;;0.90;0.40;;;;;;;;;;5019976;28;20058;-75
2022/09/20 03:36:17;;;;;;;0.20;0.20;;;;;;;;;;5024232;28;20417;-71
2022/09/20 03:39:03;;;;;;;1.17;0.77;;;;;;;;;;5024550;28;20053;-72
2022/09/20 03:41:37;;;;;;;0.20;0.20;;;;;;;;;;5024189;28;20050;-72
2022/09/20 03:44:16;;;;;;;2.60;0.40;;;;;;;;;;5026516;28;20041;-74
2022/09/20 03:46:45;;;;;;;0.20;0.20;;;;;;;;;;5024377;28;20929;-73
2022/09/20 03:49:37;;;;;;;0.30;0.25;;;;;;;;;;5018955;28;20053;-71
2022/09/20 03:52:13;;;;;;;0.75;0.40;;;;;;;;;;5022081;28;20052;-71
2022/09/20 03:55:04;;;;;;;0.17;0.17;;;;;;;;;;5021610;28;20055;-73
2022/09/20 03:57:42;;;;;;;0.47;0.20;;;;;;;;;;5020501;28;20054;-72
2022/09/20 04:00:22;;;;;;;0.52;0.22;;;;;;;;;;5025924;28;20528;-72
2022/09/20 04:03:21;;;;;;;0.10;0.10;;;;;;;;;;5026274;28;20056;-79
2022/09/20 04:05:57;;;;;;;0.30;0.30;;;;;;;;;;5014836;28;20052;-71
2022/09/20 04:08:34;;;;;;;0.10;0.10;;;;;;;;;;5022000;28;20060;-72
2022/09/20 04:11:11;;;;;;;0.20;0.20;;;;;;;;;;5013594;28;20049;-72
2022/09/20 04:13:40;;;;;;;0.20;0.20;;;;;;;;;;5024698;28;20356;-71
2022/09/20 04:16:16;;;;;;;0.65;0.30;;;;;;;;;;5019566;28;20762;-72
2022/09/20 04:18:48;;;;;;;1.52;0.25;;;;;;;;;;5026045;28;20049;-71
2022/09/20 04:21:22;;;;;;;0.20;0.20;;;;;;;;;;5018554;28;20049;-74
2022/09/20 04:23:56;;;;;;;0.10;0.10;;;;;;;;;;5027981;28;20056;-75
2022/09/20 04:26:26;;;;;;;0.30;0.30;;;;;;;;;;5025130;28;20038;-73
2022/09/20 04:28:57;;;;;;;0.60;0.30;;;;;;;;;;5022505;28;20060;-72
2022/09/20 04:31:31;;;;;;;0.30;0.30;;;;;;;;;;5015032;28;20046;-71
2022/09/20 04:34:00;;;;;;;0.40;0.40;;;;;;;;;;5022845;28;20377;-72
2022/09/20 04:36:35;;;;;;;4.15;0.57;;;;;;;;;;5022004;28;20421;-72
2022/09/20 04:39:12;;;;;;;0.28;0.28;;;;;;;;;;5017606;28;20433;-74
2022/09/20 04:41:50;;;;;;;1.23;0.20;;;;;;;;;;5020985;28;20058;-71
2022/09/20 04:44:27;;;;;;;0.40;0.40;;;;;;;;;;5020894;28;20046;-74
2022/09/20 04:47:10;;;;;;;3.47;0.55;;;;;;;;;;5000170;28;20058;-72
2022/09/20 04:50:06;;;;;;;1.65;0.85;;;;;;;;;;5021847;28;20512;-76
2022/09/20 04:52:46;;;;;;;1.85;0.93;;;;;;;;;;4971527;28;20124;-73
2022/09/20 04:55:34;;;;;;;0.10;0.10;;;;;;;;;;5021018;28;20046;-70
2022/09/20 04:58:15;;;;;;;0.98;0.30;;;;;;;;;;5021698;28;20053;-72
2022/09/20 05:00:55;;;;;;;1.85;0.55;;;;;;;;;;5018503;28;20050;-71
2022/09/20 05:03:42;;;;;;;2.83;0.50;;;;;;;;;;5021389;28;20541;-71
2022/09/20 05:06:23;;;;;;;1.23;0.50;;;;;;;;;;5023299;28;20046;-71
2022/09/20 05:09:09;;;;;;;0.90;0.75;;;;;;;;;;5026172;28;20057;-73
2022/09/20 05:11:52;;;;;;;0.45;0.43;;;;;;;;;;5019735;28;20061;-80
2022/09/20 05:14:32;;;;;;;0.93;0.55;;;;;;;;;;4998833;28;20041;-72
2022/09/20 05:17:05;;;;;;;1.35;0.73;;;;;;;;;;5020066;28;20053;-74
2022/09/20 05:19:35;;;;;;;2.60;0.55;;;;;;;;;;5019852;28;20129;-71
2022/09/20 05:22:17;;;;;;;0.28;0.20;;;;;;;;;;5026605;28;20054;-76
2022/09/20 05:25:05;;;;;;;0.20;0.20;;;;;;;;;;5023774;28;20136;-73
2022/09/20 05:27:41;;;;;;;0.73;0.30;;;;;;;;;;5026376;28;20049;-72
2022/09/20 05:30:16;;;;;;;0.60;0.60;;;;;;;;;;5029345;28;20567;-72
2022/09/20 05:32:47;;;;;;;3.40;0.55;;;;;;;;;;5024582;28;20041;-72
2022/09/20 05:35:19;;;;;;;2.28;0.55;;;;;;;;;;5026804;28;20037;-75
2022/09/20 05:37:51;;;;;;;1.05;0.47;;;;;;;;;;5028804;28;20069;-77
2022/09/20 05:40:25;;;;;;;1.08;0.70;;;;;;;;;;5029102;28;20050;-76
2022/09/20 05:42:56;;;;;;;1.08;0.85;;;;;;;;;;5030649;28;20493;-76
2022/09/20 05:45:34;;;;;;;1.17;0.70;;;;;;;;;;5028358;28;20493;-75
2022/09/20 05:48:11;;;;;;;0.52;0.52;;;;;;;;;;5029722;28;20049;-75
2022/09/20 05:50:47;;;;;;;3.95;0.70;;;;;;;;;;5022161;28;20353;-77
2022/09/20 05:53:34;;;;;;;0.30;0.30;;;;;;;;;;5029055;28;20052;-77
2022/09/20 05:56:12;;;;;;;0.40;0.40;;;;;;;;;;5019090;28;20104;-76
2022/09/20 05:58:56;;;;;;;0.35;0.35;;;;;;;;;;5028106;28;20049;-78
2022/09/20 06:01:28;;;;;;;0.10;0.10;;;;;;;;;;5030531;28;20702;-75
2022/09/20 06:04:02;;;;;;;2.53;0.60;;;;;;;;;;5027886;28;20050;-76
2022/09/20 06:06:32;;;;;;;0.50;0.50;;;;;;;;;;5023920;28;20042;-76
2022/09/20 06:09:04;;;;;;;0.28;0.28;;;;;;;;;;5021826;28;20524;-75
2022/09/20 06:11:41;;;;;;;0.43;0.43;;;;;;;;;;5024703;28;20061;-80
2022/09/20 06:14:20;;;;;;;0.55;0.30;;;;;;;;;;5028695;28;20572;-76
2022/09/20 06:16:54;;;;;;;3.72;0.80;;;;;;;;;;5041174;28;20540;-77
2022/09/20 06:19:28;;;;;;;1.45;0.50;;;;;;;;;;5023185;28;20463;-76
2022/09/20 06:21:57;;;;;;;0.20;0.20;;;;;;;;;;5019276;28;20052;-77
2022/09/20 06:24:34;;;;;;;1.95;0.80;;;;;;;;;;5018182;28;20420;-77
2022/09/20 06:27:05;;;;;;;0.90;0.57;;;;;;;;;;5023334;28;20449;-78
2022/09/20 06:29:33;;;;;;;0.82;0.45;;;;;;;;;;5018552;28;20053;-76
2022/09/20 06:32:03;;;;;;;2.15;0.75;;;;;;;;;;5021868;28;20076;-72
2022/09/20 06:34:32;;;;;;;0.40;0.40;;;;;;;;;;5025353;28;20056;-74
2022/09/20 06:42:43;;;;;;;0.40;0.38;;;;;;;;;;5026069;28;20053;-76
2022/09/20 06:45:12;;;;;;;8.13;1.10;;;;;;;;;;5018550;28;20490;-75
2022/09/20 06:47:42;;;;;;;0.50;0.50;;;;;;;;;;5028017;28;20046;-75
2022/09/20 06:50:15;;;;;;;0.50;0.50;;;;;;;;;;5031451;28;20045;-75
2022/09/20 06:52:45;;;;;;;0.43;0.43;;;;;;;;;;5021444;28;20050;-76
2022/09/20 06:55:17;;;;;;;1.42;0.30;;;;;;;;;;5024752;28;20098;-75
2022/09/20 06:57:46;;;;;;;0.57;0.55;;;;;;;;;;5015399;28;20058;-75
2022/09/20 07:00:14;;;;;;;0.52;0.50;;;;;;;;;;5025060;28;20099;-76
2022/09/20 07:02:45;;;;;;;0.40;0.40;;;;;;;;;;5011601;28;20201;-75
2022/09/20 07:05:15;;;;;;;9.95;1.02;;;;;;;;;;5021698;28;20071;-75
2022/09/20 07:07:44;;;;;;;0.50;0.50;;;;;;;;;;5018814;28;20054;-76
2022/09/20 07:10:13;;;;;;;0.90;0.73;;;;;;;;;;5019993;28;21524;-76
2022/09/20 07:12:42;;;;;;;1.15;0.70;;;;;;;;;;5025935;28;20543;-75
2022/09/20 07:15:11;;;;;;;0.88;0.70;;;;;;;;;;5017799;28;20103;-76
2022/09/20 07:17:39;;;;;;;1.83;0.57;;;;;;;;;;5024905;28;20096;-75
2022/09/20 07:20:10;;;;;;;1.02;0.70;;;;;;;;;;5021854;28;20080;-75
2022/09/20 07:22:38;;;;;;;0.70;0.70;;;;;;;;;;5018150;28;20085;-76
2022/09/20 07:25:08;;;;;;;0.70;0.40;;;;;;;;;;5018760;28;20069;-74
2022/09/20 07:27:36;;;;;;;2.05;0.90;;;;;;;;;;5022676;28;20456;-74
2022/09/20 07:30:05;;;;;;;0.32;0.32;;;;;;;;;;5027180;28;20185;-75
2022/09/20 07:32:34;;;;;;;1.48;0.70;;;;;;;;;;5018776;28;20053;-74
2022/09/20 07:35:02;;;;;;;0.50;0.40;;;;;;;;;;5019379;28;20056;-74
2022/09/20 07:37:32;;;;;;;1.35;0.65;;;;;;;;;;5018496;28;20076;-75
2022/09/20 07:40:05;;;;;;;1.50;0.70;;;;;;;;;;5017510;28;20041;-77
2022/09/20 07:42:33;;;;;;;0.60;0.60;;;;;;;;;;5016562;28;20584;-74
2022/09/20 07:45:02;;;;;;;3.97;0.57;;;;;;;;;;5016196;28;20148;-75
2022/09/20 07:47:34;;;;;;;1.35;0.70;;;;;;;;;;5022860;28;20056;-74
2022/09/20 07:50:03;;;;;;;1.25;0.75;;;;;;;;;;5020934;28;20060;-75
2022/09/20 07:52:32;;;;;;;1.27;0.82;;;;;;;;;;5019696;28;20490;-74
2022/09/20 07:55:01;;;;;;;0.95;0.80;;;;;;;;;;5023815;28;20472;-76
2022/09/20 07:57:29;;;;;;;0.85;0.63;;;;;;;;;;5021180;28;20085;-74
2022/09/20 07:59:58;;;;;;;0.80;0.63;;;;;;;;;;5025717;28;20499;-75
2022/09/20 08:02:27;;;;;;;1.02;0.55;;;;;;;;;;5019476;28;20067;-75
2022/09/20 08:04:56;;;;;;;0.85;0.70;;;;;;;;;;5012456;28;20056;-74
2022/09/20 08:07:24;;;;;;;2.75;0.98;;;;;;;;;;5016228;28;20099;-76
2022/09/20 08:09:55;;;;;;;1.15;0.60;;;;;;;;;;5018448;28;20328;-75
2022/09/20 08:12:23;;;;;;;0.95;0.88;;;;;;;;;;5021167;28;20053;-75
2022/09/20 08:15:12;;;;;;;0.63;0.52;;;;;;;;;;5018412;28;20059;-76
2022/09/20 08:17:47;;;;;;;0.43;0.35;;;;;;;;;;5021998;28;20049;-75
2022/09/20 08:20:17;;;;;;;1.35;0.90;;;;;;;;;;5019785;28;20049;-75
2022/09/20 08:22:46;;;;;;;0.90;0.85;;;;;;;;;;5012625;28;20056;-75
2022/09/20 08:25:37;;;;;;;1.05;0.80;;;;;;;;;;5016816;28;20514;-74
2022/09/20 08:28:05;;;;;;;0.55;0.55;;;;;;;;;;5017609;28;20041;-75
2022/09/20 08:30:34;;;;;;;1.20;0.65;;;;;;;;;;5014871;28;20061;-76
2022/09/20 08:33:05;;;;;;;1.50;0.75;;;;;;;;;;5026445;28;20052;-74
2022/09/20 08:35:35;;;;;;;4.60;0.68;;;;;;;;;;5020354;28;20057;-75
2022/09/20 08:38:06;;;;;;;4.70;1.38;;;;;;;;;;5021290;28;20049;-74
2022/09/20 08:40:58;;;;;;;10.00;1.20;;;;;;;;;;5023410;28;20525;-74
2022/09/20 08:43:29;;;;;;;1.23;1.13;;;;;;;;;;5026269;28;20061;-74
2022/09/20 08:45:59;;;;;;;1.17;0.60;;;;;;;;;;5027295;28;20067;-73
2022/09/20 08:48:34;;;;;;;1.75;1.17;;;;;;;;;;5025116;28;20073;-74
2022/09/20 08:51:05;;;;;;;5.07;1.00;;;;;;;;;;5022152;28;20057;-76
2022/09/20 08:53:34;;;;;;;1.90;0.85;;;;;;;;;;5020047;28;20042;-75
2022/09/20 08:56:05;;;;;;;0.95;0.85;;;;;;;;;;5023932;28;20132;-74
2022/09/20 08:58:33;;;;;;;1.15;0.88;;;;;;;;;;5027745;28;20079;-74
2022/09/20 09:01:04;;;;;;;4.22;0.95;;;;;;;;;;5025063;28;20076;-75
2022/09/20 09:03:35;;;;;;;1.92;0.88;;;;;;;;;;5026437;28;20057;-77
2022/09/20 09:06:04;;;;;;;1.15;0.75;;;;;;;;;;5023400;28;20053;-74
2022/09/20 09:08:40;;;;;;;0.68;0.65;;;;;;;;;;5024356;28;20053;-74
2022/09/20 09:11:14;;;;;;;5.50;0.88;;;;;;;;;;5024924;28;20099;-74
2022/09/20 09:13:45;;;;;;;1.20;0.75;;;;;;;;;;5025500;28;20060;-73
2022/09/20 09:16:15;;;;;;;1.13;0.70;;;;;;;;;;5020542;28;20044;-74
2022/09/20 09:18:52;;;;;;;1.02;0.70;;;;;;;;;;5027928;28;20477;-74
2022/09/20 09:21:22;;;;;;;1.95;0.82;;;;;;;;;;5030771;28;20068;-74
2022/09/20 09:23:53;;;;;;;1.42;0.60;;;;;;;;;;5021636;28;20084;-74
2022/09/20 09:26:24;;;;;;;0.90;0.57;;;;;;;;;;5023761;28;20061;-74
2022/09/20 09:29:09;;;;;;;1.10;0.70;;;;;;;;;;5028808;28;20500;-74
2022/09/20 09:31:38;;;;;;;1.75;0.45;;;;;;;;;;5023637;28;20104;-73
2022/09/20 09:34:23;;;;;;;4.88;0.80;;;;;;;;;;5024432;28;20136;-73
2022/09/20 09:36:54;;;;;;;1.25;1.10;;;;;;;;;;5024386;28;20053;-74
2022/09/20 09:39:25;;;;;;;0.95;0.70;;;;;;;;;;5024488;28;20085;-73
2022/09/20 09:41:56;;;;;;;1.05;0.77;;;;;;;;;;5025430;28;20061;-74
2022/09/20 09:44:26;;;;;;;3.92;1.42;;;;;;;;;;5019599;28;20528;-73
2022/09/20 09:46:56;;;;;;;0.50;0.50;;;;;;;;;;5025821;28;20659;-74
2022/09/20 09:49:26;;;;;;;1.17;0.63;;;;;;;;;;5023019;28;20131;-74
2022/09/20 09:52:02;;;;;;;1.40;0.88;;;;;;;;;;5027891;28;20048;-74
2022/09/20 09:54:32;;;;;;;0.50;0.50;;;;;;;;;;5026970;28;20092;-74
2022/09/20 09:57:09;;;;;;;0.90;0.70;;;;;;;;;;5027187;28;20046;-74
2022/09/20 10:00:04;;;;;;;2.55;0.63;;;;;;;;;;5027418;28;20057;-74
2022/09/20 10:02:49;;;;;;;0.68;0.60;;;;;;;;;;5019300;28;20042;-74
2022/09/20 10:05:22;;;;;;;4.03;0.98;;;;;;;;;;5021771;28;20389;-75
2022/09/20 10:07:55;;;;;;;1.13;0.77;;;;;;;;;;5024377;28;20056;-77
2022/09/20 10:10:31;;;;;;;0.47;0.47;;;;;;;;;;5020400;28;20041;-74
2022/09/20 10:13:08;;;;;;;1.48;0.55;;;;;;;;;;5022951;28;20034;-73
2022/09/20 10:15:40;;;;;;;5.57;1.10;;;;;;;;;;5026280;28;20160;-74
2022/09/20 10:18:16;;;;;;;1.00;0.88;;;;;;;;;;5026272;28;20045;-74
2022/09/20 10:20:54;;;;;;;5.10;0.50;;;;;;;;;;5016728;28;20041;-74
2022/09/20 10:23:28;;;;;;;0.45;0.45;;;;;;;;;;5020435;28;20042;-74
2022/09/20 10:26:22;;;;;;;1.65;0.75;;;;;;;;;;5021843;28;20693;-75
2022/09/20 10:28:58;;;;;;;0.60;0.52;;;;;;;;;;5023881;28;20489;-75
2022/09/20 10:31:34;;;;;;;0.50;0.30;;;;;;;;;;5017299;28;20052;-75
2022/09/20 10:34:13;;;;;;;0.65;0.55;;;;;;;;;;5016962;28;20107;-74
2022/09/20 10:36:44;;;;;;;2.65;0.43;;;;;;;;;;5022862;28;20056;-74
2022/09/20 10:39:17;;;;;;;1.27;0.50;;;;;;;;;;5010249;28;20049;-74
2022/09/20 10:44:45;;;;;;;3.90;0.43;;;;;;;;;;5018872;28;20064;-75
2022/09/20 10:47:18;;;;;;;3.28;0.80;;;;;;;;;;5023975;28;20520;-74
2022/09/20 10:49:50;;;;;;;0.82;0.70;;;;;;;;;;5026514;28;20099;-74
2022/09/20 10:52:25;;;;;;;0.50;0.50;;;;;;;;;;5022388;28;20133;-74
2022/09/20 10:55:03;;;;;;;0.30;0.28;;;;;;;;;;5025606;28;20046;-76
2022/09/20 10:57:53;;;;;;;0.57;0.57;;;;;;;;;;5021290;28;20053;-74
2022/09/20 11:00:32;;;;;;;11.48;0.68;;;;;;;;;;5027716;28;20053;-75
2022/09/20 11:03:09;;;;;;;0.75;0.65;;;;;;;;;;5025727;28;20050;-74
2022/09/20 11:05:42;;;;;;;1.55;0.68;;;;;;;;;;5021045;28;20049;-75
2022/09/20 11:08:12;;;;;;;0.30;0.30;;;;;;;;;;5021441;28;20128;-76
2022/09/20 11:10:43;;;;;;;0.40;0.40;;;;;;;;;;5024030;28;20584;-75
2022/09/20 11:13:17;;;;;;;1.48;0.70;;;;;;;;;;5023021;28;20132;-77
2022/09/20 11:15:50;;;;;;;1.30;0.50;;;;;;;;;;5017164;28;20479;-77
2022/09/20 11:18:22;;;;;;;0.30;0.30;;;;;;;;;;5021888;28;20053;-78
2022/09/20 11:20:57;;;;;;;0.63;0.50;;;;;;;;;;5021082;28;20081;-76
2022/09/20 11:23:29;;;;;;;0.50;0.50;;;;;;;;;;5013301;28;20052;-77
2022/09/20 11:26:01;;;;;;;0.50;0.47;;;;;;;;;;5014303;28;20056;-76
2022/09/20 11:28:34;;;;;;;0.65;0.40;;;;;;;;;;5027222;28;20124;-75
2022/09/20 11:31:07;;;;;;;7.25;0.80;;;;;;;;;;5021479;28;20626;-76
2022/09/20 11:33:37;;;;;;;1.30;0.50;;;;;;;;;;5017683;28;20528;-77
2022/09/20 11:36:11;;;;;;;6.35;0.73;;;;;;;;;;5015128;28;20497;-70
2022/09/20 11:38:43;;;;;;;0.50;0.40;;;;;;;;;;5015385;28;20061;-73
2022/09/20 11:41:15;;;;;;;0.47;0.43;;;;;;;;;;5022012;28;20111;-74
2022/09/20 11:43:47;;;;;;;0.95;0.30;;;;;;;;;;5012461;28;20053;-74
2022/09/20 11:46:20;;;;;;;1.08;0.65;;;;;;;;;;5018375;28;20639;-72
2022/09/20 11:48:50;;;;;;;3.80;0.95;;;;;;;;;;5017057;28;20049;-72
2022/09/20 11:51:26;;;;;;;0.30;0.30;;;;;;;;;;5017263;28;20639;-73
2022/09/20 11:54:01;;;;;;;3.97;0.43;;;;;;;;;;5013948;28;20091;-72
2022/09/20 11:56:33;;;;;;;0.75;0.57;;;;;;;;;;5014183;28;20103;-72
2022/09/20 11:59:03;;;;;;;0.57;0.47;;;;;;;;;;5020959;28;20558;-73
2022/09/20 12:01:34;;;;;;;0.45;0.45;;;;;;;;;;5024115;28;20045;-73
2022/09/20 12:04:05;;;;;;;0.55;0.35;;;;;;;;;;5021498;28;20060;-74
2022/09/20 12:06:58;;;;;;;0.30;0.30;;;;;;;;;;5004250;28;20173;-71
2022/09/20 12:09:33;;;;;;;0.50;0.50;;;;;;;;;;5015388;28;20049;-72
2022/09/20 12:12:14;;;;;;;2.83;0.75;;;;;;;;;;5020549;28;20143;-73
2022/09/20 12:14:43;;;;;;;0.73;0.30;;;;;;;;;;5011639;28;20568;-73
2022/09/20 12:17:27;;;;;;;0.45;0.40;;;;;;;;;;5019511;28;20544;-73
2022/09/20 12:19:59;;;;;;;1.40;0.60;;;;;;;;;;5019481;28;20257;-73
2022/09/20 12:22:29;;;;;;;0.32;0.20;;;;;;;;;;5018337;28;20153;-74
2022/09/20 12:25:17;;;;;;;2.03;1.13;;;;;;;;;;5019212;28;20496;-74
2022/09/20 12:27:58;;;;;;;0.73;0.45;;;;;;;;;;5015915;28;20089;-76
2022/09/20 12:30:27;;;;;;;0.95;0.40;;;;;;;;;;5021293;28;20050;-77
2022/09/20 12:32:57;;;;;;;1.80;0.88;;;;;;;;;;5020562;28;20060;-76
2022/09/20 12:36:04;;;;;;;0.52;0.30;;;;;;;;;;5020662;28;20104;-75
2022/09/20 12:38:47;;;;;;;2.30;0.65;;;;;;;;;;5012402;28;20052;-76
2022/09/20 12:41:17;;;;;;;0.93;0.47;;;;;;;;;;5020897;28;20049;-76
2022/09/20 12:43:58;;;;;;;1.90;0.47;;;;;;;;;;5021712;28;20056;-75
2022/09/20 12:46:35;;;;;;;0.57;0.13;;;;;;;;;;5017993;28;20050;-77
2022/09/20 12:52:49;;;;;;;2.47;0.30;;;;;;;;;;5025029;28;20580;-76
2022/09/20 12:54:57;;;;;;;1.83;0.68;;;;;;;;;;5016008;28;20050;-76
2022/09/20 12:57:34;;;;;;;1.08;0.47;;;;;;;;;;5013715;28;20082;-77
2022/09/20 13:00:05;;;;;;;0.22;0.22;;;;;;;;;;5018440;28;20049;-80
2022/09/20 13:02:52;;;;;;;0.22;0.22;;;;;;;;;;5019198;28;20061;-79
2022/09/20 13:05:31;;;;;;;0.63;0.45;;;;;;;;;;5015438;28;20064;-77
2022/09/20 13:08:04;;;;;;;3.33;0.30;;;;;;;;;;5010312;28;20066;-80
2022/09/20 13:10:37;;;;;;;0.70;0.52;;;;;;;;;;5013704;28;20053;-77
2022/09/20 13:13:14;;;;;;;1.33;0.52;;;;;;;;;;5020353;28;20128;-77
2022/09/20 13:15:49;;;;;;;1.35;0.98;;;;;;;;;;5020967;28;20077;-77
2022/09/20 13:18:19;;;;;;;0.73;0.55;;;;;;;;;;5022039;28;20156;-77
2022/09/20 13:20:47;;;;;;;0.50;0.50;;;;;;;;;;5019357;28;20053;-78
2022/09/20 13:23:19;;;;;;;0.85;0.52;;;;;;;;;;5023001;28;20045;-77
2022/09/20 13:25:52;;;;;;;1.27;0.40;;;;;;;;;;5013839;28;20061;-77
2022/09/20 13:28:27;;;;;;;3.63;0.50;;;;;;;;;;5024750;28;20052;-77
2022/09/20 13:31:14;;;;;;;0.30;0.30;;;;;;;;;;5022571;28;20560;-78
2022/09/20 13:33:43;;;;;;;1.92;0.52;;;;;;;;;;5022049;28;20068;-77
2022/09/20 13:36:36;;;;;;;14.75;0.82;;;;;;;;;;5027691;28;20111;-74
2022/09/20 13:39:07;;;;;;;0.30;0.22;;;;;;;;;;5025195;28;20057;-77
2022/09/20 13:41:38;;;;;;;8.70;0.40;;;;;;;;;;5018921;28;20053;-75
2022/09/20 13:44:07;;;;;;;0.25;0.25;;;;;;;;;;5023362;28;20049;-76
2022/09/20 13:46:44;;;;;;;0.40;0.40;;;;;;;;;;5022954;28;20521;-77
2022/09/20 13:49:19;;;;;;;0.40;0.40;;;;;;;;;;5021052;28;20058;-76
2022/09/20 13:51:48;;;;;;;0.65;0.32;;;;;;;;;;5022800;28;20196;-77
2022/09/20 13:54:21;;;;;;;0.35;0.20;;;;;;;;;;5028880;28;20103;-76
2022/09/20 13:56:52;;;;;;;0.30;0.30;;;;;;;;;;4998176;28;20112;-80
2022/09/20 13:59:30;;;;;;;0.45;0.30;;;;;;;;;;5029697;28;20057;-78
2022/09/20 14:02:00;;;;;;;1.38;0.75;;;;;;;;;;5027640;28;20559;-76
2022/09/20 14:04:29;;;;;;;0.30;0.30;;;;;;;;;;5022483;28;20049;-76
2022/09/20 14:06:59;;;;;;;0.32;0.20;;;;;;;;;;5024455;28;20136;-77
2022/09/20 14:09:29;;;;;;;4.40;0.73;;;;;;;;;;5019452;28;20064;-77
2022/09/20 14:11:59;;;;;;;0.55;0.30;;;;;;;;;;5011511;28;20464;-76
2022/09/20 14:14:29;;;;;;;0.73;0.63;;;;;;;;;;5011190;28;20191;-77
2022/09/20 14:16:58;;;;;;;0.63;0.60;;;;;;;;;;5019003;28;20042;-75
2022/09/20 14:19:31;;;;;;;1.27;0.60;;;;;;;;;;5014884;28;20046;-78
2022/09/20 14:22:00;;;;;;;1.20;0.55;;;;;;;;;;5020295;28;20612;-76
2022/09/20 14:24:34;;;;;;;0.45;0.45;;;;;;;;;;5019500;28;20564;-77
2022/09/20 14:27:15;;;;;;;0.50;0.20;;;;;;;;;;5026719;28;20053;-77
2022/09/20 14:29:45;;;;;;;3.92;0.60;;;;;;;;;;5028537;28;20177;-76
2022/09/20 14:32:24;;;;;;;1.90;0.30;;;;;;;;;;5026684;28;20052;-76
2022/09/20 14:35:00;;;;;;;0.10;0.10;;;;;;;;;;5025111;28;20049;-77
2022/09/20 14:37:31;;;;;;;0.20;0.20;;;;;;;;;;5024593;28;20053;-78
2022/09/20 14:40:01;;;;;;;0.17;0.17;;;;;;;;;;5020149;28;20046;-79
2022/09/20 14:42:34;;;;;;;4.10;0.40;;;;;;;;;;5018832;28;20073;-77
2022/09/20 14:45:04;;;;;;;0.38;0.28;;;;;;;;;;5016065;28;20050;-77
2022/09/20 14:47:37;;;;;;;2.72;0.60;;;;;;;;;;5024373;28;20592;-77
2022/09/20 14:50:24;;;;;;;0.80;0.45;;;;;;;;;;5025126;28;20104;-77
2022/09/20 14:53:26;;;;;;;0.35;0.15;;;;;;;;;;5019029;28;20559;-77
2022/09/20 14:55:59;;;;;;;0.32;0.30;;;;;;;;;;5018479;28;20558;-77
2022/09/20 14:58:30;;;;;;;0.68;0.32;;;;;;;;;;5021015;28;20115;-76
2022/09/20 15:01:01;;;;;;;0.10;0.10;;;;;;;;;;5024695;28;20489;-80
2022/09/20 15:03:31;;;;;;;0.50;0.30;;;;;;;;;;5023674;28;20481;-76
2022/09/20 15:05:59;;;;;;;0.75;0.32;;;;;;;;;;5022304;28;20041;-77
2022/09/20 15:08:30;;;;;;;1.95;0.82;;;;;;;;;;5028321;28;20164;-78
2022/09/20 15:10:59;;;;;;;0.40;0.20;;;;;;;;;;5023507;28;20776;-80
2022/09/20 15:13:29;;;;;;;1.20;0.32;;;;;;;;;;5019749;28;20088;-76
2022/09/20 15:15:58;;;;;;;0.73;0.30;;;;;;;;;;5019939;28;20388;-77
2022/09/20 15:18:28;;;;;;;7.13;0.40;;;;;;;;;;5024502;28;20179;-77
2022/09/20 15:20:57;;;;;;;2.80;0.45;;;;;;;;;;5023254;28;20053;-76
2022/09/20 15:23:25;;;;;;;0.82;0.38;;;;;;;;;;5018545;28;20132;-74
2022/09/20 15:25:54;;;;;;;1.65;0.52;;;;;;;;;;5024678;28;20053;-76
2022/09/20 15:28:23;;;;;;;1.80;0.52;;;;;;;;;;5021349;28;20069;-78
2022/09/20 15:30:53;;;;;;;0.35;0.30;;;;;;;;;;5025381;28;20041;-78
2022/09/20 15:33:22;;;;;;;4.20;0.43;;;;;;;;;;5021082;28;20140;-78
2022/09/20 15:35:50;;;;;;;2.08;0.30;;;;;;;;;;5022139;28;20489;-77
2022/09/20 15:38:21;;;;;;;0.15;0.15;;;;;;;;;;5026272;28;20072;-78